createdAt,value
2022-08-30T00:02:03.016Z,0.85
2022-08-30T00:04:30.447Z,0.90
2022-08-30T00:06:57.981Z,0.80
2022-08-30T00:09:25.506Z,1.00
2022-08-30T00:11:52.938Z,1.00
2022-08-30T00:14:20.631Z,0.95
2022-08-30T00:16:48.152Z,0.80
2022-08-30T00:19:15.635Z,0.90
2022-08-30T00:21:43.101Z,0.80
2022-08-30T00:24:10.552Z,0.90
2022-08-30T00:26:37.967Z,0.70
2022-08-30T00:29:05.498Z,1.00
2022-08-30T00:31:32.962Z,0.70
2022-08-30T00:34:00.523Z,0.95
2022-08-30T00:36:27.997Z,0.93
2022-08-30T00:38:55.524Z,0.80
2022-08-30T00:41:22.990Z,1.05
2022-08-30T00:43:50.448Z,0.88
2022-08-30T00:46:17.960Z,1.00
2022-08-30T00:48:48.401Z,0.70
2022-08-30T00:51:17.403Z,0.88
2022-08-30T00:53:49.390Z,0.80
2022-08-30T00:56:19.599Z,1.17
2022-08-30T00:58:53.877Z,0.70
2022-08-30T01:01:21.572Z,0.90
2022-08-30T01:03:50.045Z,0.80
2022-08-30T01:06:17.941Z,0.88
2022-08-30T01:08:47.129Z,0.80
2022-08-30T01:11:18.697Z,0.70
2022-08-30T01:13:47.580Z,0.82
2022-08-30T01:16:15.463Z,0.80
2022-08-30T01:18:43.972Z,0.80
2022-08-30T01:21:41.125Z,0.95
2022-08-30T01:24:09.757Z,0.82
2022-08-30T01:26:37.603Z,0.80
2022-08-30T01:29:10.590Z,0.70
2022-08-30T01:31:38.097Z,0.65
2022-08-30T01:34:07.832Z,0.90
2022-08-30T01:36:37.946Z,0.95
2022-08-30T01:39:14.924Z,0.80
2022-08-30T01:41:43.761Z,0.83
2022-08-30T01:44:13.276Z,0.93
2022-08-30T01:46:45.865Z,0.90
2022-08-30T01:49:16.026Z,0.90
2022-08-30T01:51:44.685Z,0.90
2022-08-30T01:54:12.599Z,0.82
2022-08-30T01:56:40.212Z,0.80
2022-08-30T01:59:07.888Z,0.65
2022-08-30T02:01:37.410Z,0.80
2022-08-30T02:04:05.793Z,0.82
2022-08-30T02:06:33.344Z,0.80
2022-08-30T02:09:01.848Z,0.75
2022-08-30T02:11:29.805Z,0.70
2022-08-30T02:13:57.301Z,0.80
2022-08-30T02:16:25.903Z,0.93
2022-08-30T02:18:54.747Z,0.80
2022-08-30T02:21:22.369Z,0.68
2022-08-30T02:23:50.830Z,0.80
2022-08-30T02:26:19.170Z,0.77
2022-08-30T02:28:49.961Z,1.05
2022-08-30T02:33:51.570Z,0.80
2022-08-30T02:36:20.935Z,0.80
2022-08-30T02:38:49.350Z,1.02
2022-08-30T02:41:17.553Z,0.70
2022-08-30T02:43:45.011Z,0.77
2022-08-30T02:46:12.938Z,0.80
2022-08-30T02:48:40.514Z,1.00
2022-08-30T02:51:11.643Z,0.90
2022-08-30T02:53:40.398Z,0.80
2022-08-30T02:56:08.876Z,0.80
2022-08-30T02:58:37.377Z,0.70
2022-08-30T03:01:05.928Z,0.90
2022-08-30T03:03:34.112Z,0.80
2022-08-30T03:06:03.582Z,0.80
2022-08-30T03:08:32.077Z,0.80
2022-08-30T03:11:00.510Z,0.82
2022-08-30T03:13:27.982Z,0.75
2022-08-30T03:15:55.611Z,0.70
2022-08-30T03:18:24.541Z,0.85
2022-08-30T03:20:54.267Z,0.90
2022-08-30T03:23:23.754Z,0.55
2022-08-30T03:25:52.026Z,0.77
2022-08-30T03:28:19.669Z,0.80
2022-08-30T03:30:48.269Z,0.80
2022-08-30T03:33:16.102Z,0.77
2022-08-30T03:35:45.987Z,0.90
2022-08-30T03:38:13.414Z,0.80
2022-08-30T03:40:41.330Z,0.90
2022-08-30T03:43:09.584Z,0.75
2022-08-30T03:45:37.241Z,0.77
2022-08-30T03:48:04.947Z,0.95
2022-08-30T03:50:33.015Z,0.80
2022-08-30T03:53:01.590Z,0.90
2022-08-30T03:55:30.697Z,0.80
2022-08-30T03:57:58.475Z,0.70
2022-08-30T04:00:26.685Z,0.70
2022-08-30T04:02:54.166Z,0.60
2022-08-30T04:05:21.796Z,0.82
2022-08-30T04:07:49.393Z,1.08
2022-08-30T04:10:17.179Z,0.70
2022-08-30T04:12:49.380Z,0.70
2022-08-30T04:15:19.136Z,0.90
2022-08-30T04:17:47.372Z,0.90
2022-08-30T04:20:15.116Z,0.80
2022-08-30T04:22:42.766Z,0.65
2022-08-30T04:25:15.256Z,0.73
2022-08-30T04:27:45.492Z,0.77
2022-08-30T04:30:14.830Z,0.85
2022-08-30T04:32:42.999Z,1.00
2022-08-30T04:35:11.421Z,0.88
2022-08-30T04:37:39.511Z,0.63
2022-08-30T04:40:07.887Z,0.60
2022-08-30T04:42:36.752Z,0.90
2022-08-30T04:45:07.462Z,0.98
2022-08-30T04:47:35.448Z,0.75
2022-08-30T04:50:04.080Z,0.90
2022-08-30T04:52:31.514Z,0.63
2022-08-30T04:54:59.772Z,0.85
2022-08-30T04:57:28.170Z,0.70
2022-08-30T04:59:56.052Z,0.80
2022-08-30T05:02:24.258Z,0.85
2022-08-30T05:05:10.269Z,0.82
2022-08-30T05:07:41.557Z,0.77
2022-08-30T05:10:11.468Z,0.73
2022-08-30T05:12:40.087Z,0.70
2022-08-30T05:15:08.565Z,0.90
2022-08-30T05:17:38.655Z,0.93
2022-08-30T05:20:08.280Z,0.90
2022-08-30T05:22:41.378Z,0.90
2022-08-30T05:25:10.308Z,0.73
2022-08-30T05:27:42.210Z,0.85
2022-08-30T05:30:10.602Z,0.90
2022-08-30T05:32:38.080Z,0.70
2022-08-30T05:35:06.823Z,0.88
2022-08-30T05:37:34.348Z,0.85
2022-08-30T05:40:02.127Z,0.73
2022-08-30T05:42:30.259Z,0.80
2022-08-30T05:44:58.309Z,0.82
2022-08-30T05:47:26.101Z,0.70
2022-08-30T05:49:53.719Z,0.85
2022-08-30T05:52:21.609Z,0.80
2022-08-30T05:54:55.230Z,0.70
2022-08-30T05:57:23.060Z,0.93
2022-08-30T05:59:50.501Z,0.88
2022-08-30T06:02:18.502Z,0.70
2022-08-30T06:04:45.978Z,0.77
2022-08-30T06:07:15.774Z,0.85
2022-08-30T06:09:44.710Z,0.80
2022-08-30T06:12:12.206Z,0.70
2022-08-30T06:14:39.682Z,0.60
2022-08-30T06:17:07.573Z,0.55
2022-08-30T06:19:35.087Z,0.80
2022-08-30T06:22:02.607Z,0.75
2022-08-30T06:24:53.725Z,0.70
2022-08-30T06:27:17.513Z,0.95
2022-08-30T06:29:45.342Z,0.65
2022-08-30T06:32:12.768Z,0.80
2022-08-30T06:34:40.210Z,0.77
2022-08-30T06:37:07.674Z,0.70
2022-08-30T06:39:36.683Z,0.60
2022-08-30T06:42:04.287Z,0.93
2022-08-30T06:44:33.693Z,0.70
2022-08-30T06:47:01.748Z,0.60
2022-08-30T06:49:29.335Z,0.75
2022-08-30T06:51:56.905Z,0.80
2022-08-30T06:54:24.385Z,0.60
2022-08-30T06:56:59.271Z,0.68
2022-08-30T06:59:27.645Z,0.88
2022-08-30T07:01:56.015Z,0.60
2022-08-30T07:04:23.631Z,0.80
2022-08-30T07:06:51.263Z,0.85
2022-08-30T07:09:19.622Z,0.70
2022-08-30T07:11:51.059Z,0.77
2022-08-30T07:14:19.168Z,1.10
2022-08-30T07:16:51.270Z,0.57
2022-08-30T07:19:21.427Z,0.60
2022-08-30T07:21:49.704Z,0.90
2022-08-30T07:24:18.019Z,0.70
2022-08-30T07:26:52.188Z,0.75
2022-08-30T07:29:21.554Z,0.65
2022-08-30T07:31:49.536Z,0.75
2022-08-30T07:34:20.468Z,0.50
2022-08-30T07:36:49.810Z,0.75
2022-08-30T07:39:17.473Z,0.90
2022-08-30T07:41:44.967Z,0.70
2022-08-30T07:44:12.458Z,0.93
2022-08-30T07:46:41.182Z,0.70
2022-08-30T07:49:10.858Z,0.90
2022-08-30T07:51:39.918Z,0.90
2022-08-30T07:54:07.508Z,0.80
2022-08-30T07:56:35.430Z,0.80
2022-08-30T07:59:03.046Z,1.02
2022-08-30T08:01:30.802Z,1.00
2022-08-30T08:03:58.568Z,0.80
2022-08-30T08:06:27.804Z,1.20
2022-08-30T08:09:02.623Z,1.30
2022-08-30T08:11:33.748Z,1.17
2022-08-30T08:14:02.055Z,1.60
2022-08-30T08:16:31.368Z,1.27
2022-08-30T08:18:58.934Z,1.30
2022-08-30T08:21:29.162Z,1.35
2022-08-30T08:23:56.757Z,1.45
2022-08-30T08:26:24.201Z,1.33
2022-08-30T08:28:51.627Z,1.50
2022-08-30T08:31:28.754Z,1.58
2022-08-30T08:34:03.448Z,1.50
2022-08-30T08:36:32.308Z,1.43
2022-08-30T08:39:00.684Z,1.42
2022-08-30T08:41:55.436Z,1.60
2022-08-30T08:44:51.119Z,1.90
2022-08-30T08:47:37.862Z,2.05
2022-08-30T08:50:12.267Z,1.80
2022-08-30T08:53:13.272Z,1.60
2022-08-30T08:55:49.961Z,1.80
2022-08-30T08:58:29.176Z,1.80
2022-08-30T09:00:58.390Z,1.70
2022-08-30T09:03:28.488Z,1.63
2022-08-30T09:05:56.592Z,1.80
2022-08-30T09:08:24.170Z,1.77
2022-08-30T09:10:57.106Z,1.60
2022-08-30T09:13:25.709Z,1.80
2022-08-30T09:15:57.476Z,1.90
2022-08-30T09:18:51.380Z,1.35
2022-08-30T09:21:25.213Z,1.75
2022-08-30T09:23:59.502Z,1.52
2022-08-30T09:26:35.797Z,1.48
2022-08-30T09:29:05.812Z,1.63
2022-08-30T09:31:47.637Z,1.83
2022-08-30T09:34:20.832Z,1.80
2022-08-30T09:36:53.944Z,1.80
2022-08-30T09:39:33.971Z,1.88
2022-08-30T09:42:20.127Z,1.52
2022-08-30T09:44:47.620Z,1.63
2022-08-30T09:47:28.501Z,1.55
2022-08-30T09:50:06.669Z,2.10
2022-08-30T09:52:43.291Z,1.60
2022-08-30T09:55:32.041Z,1.77
2022-08-30T09:58:17.217Z,1.60
2022-08-30T10:01:00.418Z,1.67
2022-08-30T10:03:40.515Z,1.80
2022-08-30T10:06:42.143Z,1.83
